Time;durP1;ratioP1;P1;durP2;ratioP2;P2;SDS_P1;SDS_P2;PMS_P1;PMS_P2;Temp;Humidity;BMP_temperature;BMP_pressure;BME280_temperature;BME280_humidity;BME280_pressure;Samples;Min_cycle;Max_cycle;Signal;HPM_P1;HPM_P2
2022/03/06 09:41:27;;;;;;;10.95;4.05;;;16.20;62.60;;;;;;5061661;28;20423;-60
2022/03/06 09:43:56;;;;;;;13.07;4.00;;;16.20;62.70;;;;;;5044368;28;20037;-60
2022/03/06 09:46:22;;;;;;;10.00;4.05;;;16.30;62.30;;;;;;5053313;28;20087;-61
2022/03/06 09:48:49;;;;;;;10.02;3.80;;;16.30;62.10;;;;;;5080546;28;20528;-61
2022/03/06 09:51:14;;;;;;;11.90;3.80;;;16.40;61.90;;;;;;5045287;28;20413;-61
2022/03/06 09:53:40;;;;;;;9.55;3.25;;;16.40;61.80;;;;;;5044141;28;20025;-61
2022/03/06 09:56:06;;;;;;;10.15;3.58;;;16.50;61.80;;;;;;5042809;28;20486;-61
2022/03/06 09:58:32;;;;;;;11.05;3.50;;;16.50;61.60;;;;;;5044968;28;20497;-61
2022/03/06 10:00:57;;;;;;;9.73;3.50;;;16.50;61.30;;;;;;5051408;28;20040;-61
2022/03/06 10:03:23;;;;;;;11.50;3.47;;;16.60;61.30;;;;;;5044857;28;20026;-61
2022/03/06 10:05:49;;;;;;;10.38;3.72;;;16.60;61.10;;;;;;5042197;28;20029;-61
2022/03/06 10:08:25;;;;;;;10.55;3.53;;;16.70;61.00;;;;;;5042384;28;20029;-61
2022/03/06 10:10:58;;;;;;;10.63;3.70;;;16.70;61.00;;;;;;5042245;28;20057;-61
2022/03/06 10:13:29;;;;;;;7.00;3.28;;;16.80;61.90;;;;;;5076410;28;20562;-61
2022/03/06 10:16:11;;;;;;;7.95;3.10;;;16.80;60.70;;;;;;5044321;28;20108;-60
2022/03/06 10:18:44;;;;;;;7.72;3.25;;;16.90;60.50;;;;;;5037401;28;20045;-57
2022/03/06 10:21:14;;;;;;;9.05;3.00;;;17.00;60.40;;;;;;5042093;28;20043;-57
2022/03/06 10:23:40;;;;;;;10.38;3.50;;;17.00;60.20;;;;;;5034695;28;20194;-57
2022/03/06 10:26:12;;;;;;;11.85;3.50;;;17.00;60.30;;;;;;5051662;28;20104;-58
2022/03/06 10:28:48;;;;;;;7.35;3.08;;;17.10;60.50;;;;;;5042629;28;20673;-57
2022/03/06 10:31:14;;;;;;;13.65;3.17;;;17.20;60.30;;;;;;5041424;28;20032;-57
2022/03/06 10:33:40;;;;;;;9.50;3.13;;;17.20;60.20;;;;;;5041481;28;20037;-58
2022/03/06 10:36:09;;;;;;;9.15;3.00;;;17.30;60.10;;;;;;5038256;28;20670;-57
2022/03/06 10:38:36;;;;;;;6.72;2.90;;;17.30;59.90;;;;;;5038919;28;20476;-57
2022/03/06 10:41:17;;;;;;;8.40;2.90;;;17.40;60.00;;;;;;5041401;28;20099;-57
2022/03/06 10:43:43;;;;;;;8.88;3.05;;;17.40;60.00;;;;;;5037486;28;20026;-58
2022/03/06 10:46:08;;;;;;;6.60;2.90;;;17.50;60.00;;;;;;5053652;28;20029;-58
2022/03/06 10:48:34;;;;;;;8.95;2.78;;;17.50;59.70;;;;;;5042232;28;20096;-58
2022/03/06 10:51:12;;;;;;;7.47;2.90;;;17.60;59.70;;;;;;5038828;28;20033;-58
2022/03/06 10:53:39;;;;;;;10.05;3.22;;;17.60;59.50;;;;;;5029535;28;20032;-58
2022/03/06 10:56:07;;;;;;;12.23;2.88;;;17.70;59.60;;;;;;5029634;28;20380;-58
2022/03/06 10:58:32;;;;;;;12.05;3.00;;;17.70;59.40;;;;;;5034099;28;20063;-58
2022/03/06 11:00:58;;;;;;;11.52;2.83;;;17.80;59.40;;;;;;5064035;28;20589;-58
2022/03/06 11:03:24;;;;;;;9.95;3.00;;;17.90;59.20;;;;;;5031210;28;20379;-58
2022/03/06 11:05:49;;;;;;;12.68;2.95;;;17.90;59.10;;;;;;5035766;28;20494;-58
2022/03/06 11:08:16;;;;;;;12.98;3.00;;;17.90;59.00;;;;;;5029459;28;20040;-58
2022/03/06 11:10:42;;;;;;;11.50;3.20;;;18.00;58.90;;;;;;5028451;28;20057;-58
2022/03/06 11:13:12;;;;;;;9.80;3.08;;;18.00;58.90;;;;;;5033172;28;20383;-58
2022/03/06 11:15:38;;;;;;;9.07;2.88;;;18.10;58.70;;;;;;5026562;28;20539;-59
2022/03/06 11:18:06;;;;;;;10.93;2.80;;;18.10;58.50;;;;;;5058817;28;20026;-58
2022/03/06 11:20:31;;;;;;;9.13;2.92;;;18.20;58.50;;;;;;5035768;28;20044;-58
2022/03/06 11:23:18;;;;;;;10.85;3.00;;;18.20;58.50;;;;;;5043434;28;20029;-58
2022/03/06 11:26:09;;;;;;;14.65;3.30;;;18.20;58.30;;;;;;5059710;28;20030;-58
2022/03/06 11:29:03;;;;;;;8.73;2.90;;;18.20;58.20;;;;;;5027262;28;20501;-58
2022/03/06 11:31:42;;;;;;;8.43;2.83;;;18.30;58.10;;;;;;5036653;28;20044;-58
2022/03/06 11:34:09;;;;;;;12.63;3.28;;;18.40;58.00;;;;;;5033662;28;20545;-58
2022/03/06 11:36:39;;;;;;;9.50;3.08;;;18.40;57.90;;;;;;5028042;28;20045;-58
2022/03/06 11:39:05;;;;;;;10.80;2.88;;;18.40;57.70;;;;;;5009836;28;20021;-58
2022/03/06 11:41:36;;;;;;;10.50;3.13;;;18.40;57.60;;;;;;5036853;28;20149;-58
2022/03/06 11:44:02;;;;;;;11.27;3.05;;;18.40;57.50;;;;;;5026941;28;20029;-58
2022/03/06 11:46:28;;;;;;;9.68;2.88;;;18.40;57.40;;;;;;5027163;28;20045;-58
2022/03/06 11:48:56;;;;;;;9.43;3.10;;;18.40;57.30;;;;;;5028234;28;20034;-59
2022/03/06 11:51:25;;;;;;;10.85;2.90;;;18.50;57.30;;;;;;5026986;28;20029;-58
2022/03/06 11:54:05;;;;;;;11.00;3.22;;;18.50;57.40;;;;;;5026729;28;20116;-58
2022/03/06 11:56:40;;;;;;;7.20;2.72;;;18.50;57.40;;;;;;5026942;28;20041;-58
2022/03/06 11:59:09;;;;;;;11.98;2.97;;;18.50;57.30;;;;;;5017955;28;20480;-58
2022/03/06 12:01:47;;;;;;;11.40;2.97;;;18.50;57.20;;;;;;5026731;28;20057;-57
2022/03/06 12:04:14;;;;;;;7.88;2.70;;;18.50;57.20;;;;;;5038431;28;20025;-57
2022/03/06 12:06:45;;;;;;;8.25;2.97;;;18.50;57.20;;;;;;5025258;28;20037;-58
2022/03/06 12:09:12;;;;;;;9.27;2.70;;;18.50;57.10;;;;;;5026146;28;20045;-58
2022/03/06 12:11:39;;;;;;;11.15;3.03;;;18.50;57.10;;;;;;5026015;28;20063;-58
2022/03/06 12:14:17;;;;;;;9.95;2.75;;;18.50;57.00;;;;;;5026167;28;20018;-57
2022/03/06 12:17:03;;;;;;;9.35;2.60;;;18.50;57.10;;;;;;5027019;28;20034;-58
2022/03/06 12:19:29;;;;;;;12.75;2.75;;;18.50;57.00;;;;;;5042107;28;20029;-58
2022/03/06 12:22:13;;;;;;;7.68;2.65;;;18.50;57.00;;;;;;5026330;28;20029;-58
2022/03/06 12:24:39;;;;;;;11.60;3.07;;;18.50;57.00;;;;;;5026207;28;20099;-58
2022/03/06 12:27:19;;;;;;;8.20;2.60;;;18.50;57.00;;;;;;5025020;28;20049;-58
2022/03/06 12:29:51;;;;;;;7.88;2.50;;;18.50;56.90;;;;;;5057585;28;20406;-58
2022/03/06 12:32:29;;;;;;;11.73;2.80;;;18.50;56.90;;;;;;5026307;28;20061;-58
2022/03/06 12:35:05;;;;;;;11.45;2.88;;;18.60;57.10;;;;;;5011534;28;20030;-58
2022/03/06 12:37:33;;;;;;;14.63;3.38;;;18.50;57.30;;;;;;5028238;28;20155;-58
2022/03/06 12:39:59;;;;;;;13.10;3.10;;;18.50;57.10;;;;;;5027520;28;20057;-58
2022/03/06 12:42:26;;;;;;;11.10;3.05;;;18.50;56.50;;;;;;5025587;28;20029;-58
2022/03/06 12:45:00;;;;;;;10.95;3.20;;;18.60;56.60;;;;;;5025842;28;20037;-58
2022/03/06 12:47:29;;;;;;;11.30;2.95;;;18.60;56.60;;;;;;5025726;28;20029;-58
2022/03/06 12:49:56;;;;;;;14.27;3.63;;;18.60;56.40;;;;;;5024662;28;20029;-58
2022/03/06 12:52:23;;;;;;;12.88;3.10;;;18.60;56.50;;;;;;5028360;28;20033;-58
2022/03/06 12:54:49;;;;;;;18.73;3.60;;;18.60;56.30;;;;;;5023969;28;20021;-58
2022/03/06 12:57:15;;;;;;;16.23;4.07;;;18.80;56.00;;;;;;5040464;28;20045;-58
2022/03/06 12:59:42;;;;;;;18.73;3.70;;;18.70;56.00;;;;;;5027006;28;20037;-58
2022/03/06 13:02:08;;;;;;;14.75;3.80;;;18.80;55.80;;;;;;5025481;28;20033;-58
2022/03/06 13:04:37;;;;;;;20.98;3.50;;;18.70;55.70;;;;;;5027183;28;20135;-58
2022/03/06 13:07:05;;;;;;;18.02;4.05;;;18.80;55.80;;;;;;5024168;28;20029;-58
2022/03/06 13:09:34;;;;;;;20.95;4.25;;;18.80;55.80;;;;;;5021763;28;20364;-58
2022/03/06 13:12:00;;;;;;;24.52;5.53;;;18.70;56.20;;;;;;5024727;28;20191;-58
2022/03/06 13:14:34;;;;;;;24.08;6.15;;;18.60;55.30;;;;;;5018401;28;20037;-58
2022/03/06 13:17:01;;;;;;;18.87;6.20;;;18.50;53.70;;;;;;5056629;28;20625;-58
2022/03/06 13:19:35;;;;;;;17.77;6.30;;;18.40;53.60;;;;;;5027617;28;20033;-58
2022/03/06 13:22:00;;;;;;;19.48;6.05;;;18.30;53.50;;;;;;5057638;28;20025;-58
2022/03/06 13:24:26;;;;;;;21.38;6.60;;;18.40;53.50;;;;;;5054430;28;20029;-57
2022/03/06 13:26:55;;;;;;;19.25;5.97;;;18.40;53.00;;;;;;5024895;28;20068;-58
2022/03/06 13:29:23;;;;;;;17.40;6.15;;;18.50;53.00;;;;;;5056283;28;20653;-58
2022/03/06 13:31:49;;;;;;;18.40;5.75;;;18.60;53.00;;;;;;5025209;28;20026;-58
2022/03/06 13:34:15;;;;;;;18.83;5.40;;;18.50;53.60;;;;;;5061345;28;20032;-57
2022/03/06 13:36:42;;;;;;;15.32;5.30;;;18.50;53.60;;;;;;5026536;28;20040;-58
2022/03/06 13:39:18;;;;;;;13.15;5.30;;;18.40;53.70;;;;;;5056041;28;20391;-58
2022/03/06 13:41:55;;;;;;;16.33;5.15;;;18.40;54.80;;;;;;5023983;28;20025;-58
2022/03/06 13:44:21;;;;;;;17.38;4.85;;;18.40;53.90;;;;;;5024750;28;20041;-58
2022/03/06 13:46:46;;;;;;;16.85;5.05;;;18.40;54.10;;;;;;5024055;28;20440;-58
2022/03/06 13:49:17;;;;;;;18.08;5.30;;;18.40;54.10;;;;;;5028764;28;20025;-58
2022/03/06 13:51:43;;;;;;;15.15;5.00;;;18.40;54.00;;;;;;5027041;28;20026;-58
2022/03/06 13:54:08;;;;;;;14.77;5.05;;;18.40;54.20;;;;;;5024531;28;20112;-58
2022/03/06 13:56:39;;;;;;;15.27;4.75;;;18.40;54.40;;;;;;5024908;28;20157;-58
2022/03/06 13:59:07;;;;;;;14.73;4.47;;;18.30;54.50;;;;;;5025068;28;20108;-58
2022/03/06 14:01:33;;;;;;;14.10;4.70;;;18.30;54.50;;;;;;5025759;28;20052;-59
2022/03/06 14:04:04;;;;;;;13.13;4.53;;;18.30;54.60;;;;;;5058919;28;20021;-58
2022/03/06 14:06:41;;;;;;;14.77;4.57;;;18.20;54.70;;;;;;5024505;28;20790;-58
2022/03/06 14:09:26;;;;;;;16.48;4.60;;;18.20;54.90;;;;;;5056918;28;20036;-58
2022/03/06 14:12:06;;;;;;;13.70;4.60;;;18.20;54.80;;;;;;5024601;28;20509;-58
2022/03/06 14:14:39;;;;;;;13.02;4.90;;;18.20;54.80;;;;;;5024519;28;20034;-58
2022/03/06 14:17:06;;;;;;;12.80;4.15;;;18.20;54.90;;;;;;5024790;28;20033;-58
2022/03/06 14:19:31;;;;;;;12.88;4.53;;;18.20;54.90;;;;;;5024539;28;20060;-57
2022/03/06 14:21:58;;;;;;;11.30;4.03;;;18.20;54.90;;;;;;5025868;28;20159;-57
2022/03/06 14:24:23;;;;;;;12.95;3.72;;;18.20;55.00;;;;;;5024027;28;20600;-57
2022/03/06 14:26:50;;;;;;;11.52;3.90;;;18.20;55.10;;;;;;5026198;28;20040;-58
2022/03/06 14:29:22;;;;;;;12.02;4.05;;;18.20;55.20;;;;;;5028852;28;20045;-57
2022/03/06 14:32:01;;;;;;;12.57;4.20;;;18.20;55.10;;;;;;5016681;28;20453;-58
2022/03/06 14:34:31;;;;;;;14.20;4.00;;;18.20;55.10;;;;;;5028330;28;20029;-58
2022/03/06 14:36:57;;;;;;;10.57;3.90;;;18.20;55.20;;;;;;5034268;28;20100;-58
2022/03/06 14:39:23;;;;;;;12.18;4.05;;;18.20;55.30;;;;;;5032005;28;20124;-58
2022/03/06 14:41:49;;;;;;;11.55;3.95;;;18.10;55.40;;;;;;5032497;28;20520;-57
2022/03/06 14:44:14;;;;;;;11.38;3.80;;;18.10;55.40;;;;;;5031200;28;20033;-58
2022/03/06 14:46:40;;;;;;;13.48;3.80;;;18.00;55.50;;;;;;5015359;28;20631;-57
2022/03/06 14:49:07;;;;;;;11.85;4.13;;;18.10;55.60;;;;;;5018048;28;20037;-57
2022/03/06 14:51:32;;;;;;;10.95;4.22;;;18.00;55.70;;;;;;5019640;28;20516;-57
2022/03/06 14:54:00;;;;;;;12.23;4.00;;;18.00;55.70;;;;;;5021483;28;20025;-57
2022/03/06 14:56:26;;;;;;;10.85;3.90;;;18.00;55.70;;;;;;5020559;28;20390;-58
2022/03/06 14:58:51;;;;;;;11.70;4.00;;;18.00;55.80;;;;;;5029910;28;20029;-57
2022/03/06 15:01:17;;;;;;;10.35;4.05;;;18.00;55.80;;;;;;5016344;28;20107;-58
2022/03/06 15:03:43;;;;;;;9.65;4.00;;;18.00;56.00;;;;;;5019786;28;20474;-57
2022/03/06 15:06:09;;;;;;;14.65;4.35;;;18.00;55.80;;;;;;5019484;28;20018;-57
2022/03/06 15:08:35;;;;;;;13.30;4.43;;;18.10;56.60;;;;;;5020308;28;20033;-57
2022/03/06 15:11:02;;;;;;;15.70;4.60;;;18.00;58.50;;;;;;5030675;28;20121;-57
2022/03/06 15:13:28;;;;;;;12.25;3.97;;;18.00;59.00;;;;;;5013734;28;20022;-57
2022/03/06 15:15:54;;;;;;;12.45;3.85;;;17.90;58.50;;;;;;5019210;28;20493;-57
2022/03/06 15:18:19;;;;;;;13.13;4.60;;;17.90;58.40;;;;;;5019553;28;20033;-57
2022/03/06 15:20:45;;;;;;;12.75;4.13;;;17.90;59.20;;;;;;5018792;28;20030;-58
2022/03/06 15:23:10;;;;;;;13.68;4.07;;;17.90;58.30;;;;;;5017956;28;20021;-57
2022/03/06 15:25:36;;;;;;;13.52;3.95;;;17.90;58.30;;;;;;5013313;28;20030;-57
2022/03/06 15:28:02;;;;;;;12.77;3.75;;;17.90;58.30;;;;;;5017760;28;20026;-57
2022/03/06 15:30:28;;;;;;;10.52;4.20;;;17.90;58.40;;;;;;5028102;28;20029;-58
2022/03/06 15:32:53;;;;;;;12.27;4.07;;;17.80;58.40;;;;;;5025677;28;20022;-59
2022/03/06 15:35:19;;;;;;;13.90;3.95;;;17.80;58.30;;;;;;5018704;28;20059;-57
2022/03/06 15:37:44;;;;;;;12.43;4.00;;;17.80;58.40;;;;;;5014228;28;20406;-58
2022/03/06 15:40:11;;;;;;;9.35;3.95;;;17.80;58.30;;;;;;5016505;28;20129;-57
2022/03/06 15:42:37;;;;;;;11.57;4.00;;;17.80;58.30;;;;;;5018869;28;20533;-57
2022/03/06 15:45:04;;;;;;;11.82;4.20;;;17.80;58.30;;;;;;5022506;28;20375;-58
2022/03/06 15:47:30;;;;;;;11.63;4.03;;;17.70;58.20;;;;;;5018694;28;20033;-57
2022/03/06 15:49:55;;;;;;;10.98;4.30;;;17.70;58.30;;;;;;5015194;28;20029;-57
2022/03/06 15:52:21;;;;;;;13.02;4.15;;;17.70;58.00;;;;;;5014362;28;20058;-57
2022/03/06 15:54:47;;;;;;;10.77;4.00;;;17.70;57.90;;;;;;5019055;28;20083;-58
2022/03/06 15:57:14;;;;;;;9.52;4.53;;;17.70;57.90;;;;;;5018598;28;20018;-57
2022/03/06 15:59:40;;;;;;;12.18;4.35;;;17.70;57.90;;;;;;5018570;28;20044;-58
2022/03/06 16:02:05;;;;;;;13.35;4.30;;;17.70;57.90;;;;;;5024714;28;20038;-57
2022/03/06 16:04:31;;;;;;;12.27;3.90;;;17.70;58.00;;;;;;5013707;28;20072;-57
2022/03/06 16:06:57;;;;;;;9.60;3.75;;;17.60;57.90;;;;;;5017771;28;20030;-57
2022/03/06 16:09:22;;;;;;;10.75;4.05;;;17.70;57.80;;;;;;5018164;28;20026;-57
2022/03/06 16:11:48;;;;;;;12.43;4.53;;;17.70;57.80;;;;;;5017444;28;20388;-57
2022/03/06 16:14:14;;;;;;;14.82;4.00;;;17.70;57.80;;;;;;5017369;28;20501;-58
2022/03/06 16:16:39;;;;;;;12.68;4.90;;;17.60;57.60;;;;;;5013353;28;20087;-58
2022/03/06 16:19:05;;;;;;;12.10;4.90;;;17.70;57.80;;;;;;5027775;28;20496;-58
2022/03/06 16:21:32;;;;;;;12.68;4.90;;;17.60;57.90;;;;;;5051598;28;20057;-58
2022/03/06 16:23:58;;;;;;;11.02;4.63;;;17.60;57.90;;;;;;5022711;28;20018;-58
2022/03/06 16:26:23;;;;;;;20.77;5.55;;;17.60;57.90;;;;;;5017465;28;20045;-57
2022/03/06 16:28:51;;;;;;;13.40;5.13;;;17.60;57.90;;;;;;5014005;28;20040;-57
2022/03/06 16:31:16;;;;;;;11.38;4.95;;;17.60;58.90;;;;;;5014834;28;20042;-57
2022/03/06 16:33:42;;;;;;;15.00;5.13;;;17.60;57.60;;;;;;5017226;28;20091;-57
2022/03/06 16:36:08;;;;;;;10.85;5.07;;;17.60;57.60;;;;;;5019285;28;20433;-58
2022/03/06 16:38:33;;;;;;;14.73;5.70;;;17.70;57.60;;;;;;5017621;28;20080;-56
2022/03/06 16:41:01;;;;;;;13.65;5.10;;;17.60;57.30;;;;;;5021202;28;20041;-58
2022/03/06 16:43:27;;;;;;;13.80;4.78;;;17.70;57.40;;;;;;5013018;28;20524;-57
2022/03/06 16:45:54;;;;;;;12.98;5.18;;;17.70;57.30;;;;;;5024064;28;20026;-57
2022/03/06 16:48:20;;;;;;;11.32;5.30;;;17.70;57.00;;;;;;5027998;28;20030;-59
2022/03/06 16:50:47;;;;;;;12.45;5.07;;;17.80;57.10;;;;;;5026667;28;20401;-58
2022/03/06 16:53:13;;;;;;;11.13;4.88;;;17.80;57.00;;;;;;5028595;28;20034;-58
2022/03/06 16:55:38;;;;;;;11.52;4.95;;;17.80;57.00;;;;;;5012320;28;20065;-58
2022/03/06 16:58:04;;;;;;;13.50;4.70;;;17.90;56.90;;;;;;5022068;28;20402;-58
2022/03/06 17:00:30;;;;;;;13.48;4.97;;;17.90;56.90;;;;;;5022355;28;20195;-57
2022/03/06 17:02:56;;;;;;;13.77;4.63;;;17.90;56.70;;;;;;5023794;28;20026;-58
2022/03/06 17:05:21;;;;;;;11.75;5.40;;;17.90;56.40;;;;;;5022279;28;20044;-57
2022/03/06 17:07:47;;;;;;;11.90;5.38;;;18.00;56.30;;;;;;5027287;28;20029;-58
2022/03/06 17:10:13;;;;;;;11.48;5.25;;;18.00;56.30;;;;;;5027217;28;20025;-58
2022/03/06 17:12:38;;;;;;;12.52;5.25;;;18.00;56.40;;;;;;5024599;28;20110;-58
2022/03/06 17:15:05;;;;;;;11.52;4.95;;;18.10;56.20;;;;;;5023867;28;20028;-57
2022/03/06 17:17:31;;;;;;;11.85;4.75;;;18.10;56.30;;;;;;5021888;28;20053;-57
2022/03/06 17:19:56;;;;;;;10.40;4.70;;;18.10;56.30;;;;;;5019764;28;20565;-58
2022/03/06 17:22:22;;;;;;;10.50;5.18;;;18.10;56.20;;;;;;5023560;28;20423;-57
2022/03/06 17:24:48;;;;;;;11.35;4.53;;;18.10;56.20;;;;;;5023994;28;20025;-57
2022/03/06 17:27:13;;;;;;;9.25;4.50;;;18.10;56.10;;;;;;5019904;28;20517;-57
2022/03/06 17:29:39;;;;;;;9.52;4.13;;;18.20;56.10;;;;;;5019416;28;20017;-57
2022/03/06 17:32:05;;;;;;;10.20;4.43;;;18.20;56.00;;;;;;5018640;28;20041;-57
2022/03/06 17:34:31;;;;;;;15.13;4.82;;;18.20;55.80;;;;;;5020543;28;20026;-57
2022/03/06 17:36:57;;;;;;;10.18;4.50;;;18.30;55.80;;;;;;5028064;28;20109;-58
2022/03/06 17:39:22;;;;;;;8.95;4.03;;;18.30;55.80;;;;;;5025693;28;20045;-58
2022/03/06 17:41:48;;;;;;;9.13;4.10;;;18.30;55.80;;;;;;5021012;28;20104;-58
2022/03/06 17:44:14;;;;;;;9.00;3.70;;;18.40;55.70;;;;;;5012743;28;20026;-58
2022/03/06 17:46:40;;;;;;;8.75;4.22;;;18.40;55.50;;;;;;5025661;28;20112;-58
2022/03/06 17:49:05;;;;;;;11.35;4.10;;;18.40;55.40;;;;;;5025566;28;20024;-58
2022/03/06 17:51:31;;;;;;;9.27;3.90;;;18.40;55.40;;;;;;5024340;28;20071;-58
2022/03/06 17:53:57;;;;;;;9.23;3.90;;;18.50;55.40;;;;;;5025772;28;20037;-58
2022/03/06 17:56:22;;;;;;;8.32;4.13;;;18.50;55.30;;;;;;5023094;28;20037;-58
2022/03/06 17:58:48;;;;;;;10.52;4.50;;;18.50;55.40;;;;;;5023491;28;20593;-58
2022/03/06 18:01:17;;;;;;;9.70;4.28;;;18.50;55.30;;;;;;5028729;28;20049;-58
2022/03/06 18:03:44;;;;;;;9.45;4.30;;;18.60;55.40;;;;;;5023398;28;20815;-58
2022/03/06 18:06:10;;;;;;;9.18;4.45;;;18.60;55.40;;;;;;5019213;28;20113;-58
2022/03/06 18:08:37;;;;;;;9.85;4.25;;;18.60;55.40;;;;;;5030188;28;20104;-58
2022/03/06 18:11:06;;;;;;;10.30;4.68;;;18.60;55.40;;;;;;5033580;28;20026;-58
2022/03/06 18:13:34;;;;;;;9.13;4.50;;;18.70;55.50;;;;;;5039393;28;20029;-58
2022/03/06 18:16:00;;;;;;;12.35;4.63;;;18.70;55.50;;;;;;5034284;28;20033;-58
2022/03/06 18:18:25;;;;;;;11.40;5.45;;;18.80;55.40;;;;;;5033936;28;20446;-57
2022/03/06 18:20:52;;;;;;;11.95;5.90;;;18.70;54.90;;;;;;5034094;28;20048;-57
2022/03/06 18:23:22;;;;;;;12.00;5.80;;;18.70;54.80;;;;;;5020171;28;20072;-57
2022/03/06 18:25:51;;;;;;;13.02;5.57;;;18.80;54.90;;;;;;5015506;28;20030;-57
2022/03/06 18:28:16;;;;;;;9.57;4.90;;;18.80;54.90;;;;;;5028923;28;20536;-58
2022/03/06 18:30:47;;;;;;;12.50;5.10;;;18.80;54.90;;;;;;5036262;28;20044;-57
2022/03/06 18:33:12;;;;;;;9.88;4.57;;;18.90;55.30;;;;;;5025744;28;20163;-58
2022/03/06 18:35:38;;;;;;;10.50;4.95;;;18.90;55.20;;;;;;5022988;28;20084;-58
2022/03/06 18:38:04;;;;;;;13.40;5.40;;;18.90;55.10;;;;;;5023454;28;20053;-58
2022/03/06 18:40:30;;;;;;;9.95;5.32;;;19.00;54.90;;;;;;5028304;28;20053;-58
2022/03/06 18:42:56;;;;;;;14.43;4.75;;;19.00;55.20;;;;;;5031109;28;20367;-58
2022/03/06 18:45:22;;;;;;;10.27;4.45;;;19.10;55.40;;;;;;5050690;28;20041;-57
2022/03/06 18:47:48;;;;;;;10.63;4.55;;;19.10;55.20;;;;;;5023905;28;20025;-58
2022/03/06 18:50:16;;;;;;;11.05;4.97;;;19.20;55.00;;;;;;5029597;28;20037;-59
2022/03/06 18:52:43;;;;;;;13.75;5.05;;;19.20;54.90;;;;;;5028282;28;20045;-58
2022/03/06 18:55:09;;;;;;;11.50;4.95;;;19.20;54.80;;;;;;5022010;28;20057;-57
2022/03/06 18:57:35;;;;;;;11.90;4.80;;;19.20;54.70;;;;;;5029714;28;20052;-57
2022/03/06 19:00:01;;;;;;;14.95;4.47;;;19.30;54.70;;;;;;5028083;28;20061;-58
2022/03/06 19:02:26;;;;;;;9.88;4.25;;;19.30;54.50;;;;;;5023273;28;20025;-58
2022/03/06 19:04:52;;;;;;;10.95;4.93;;;19.30;54.90;;;;;;5033707;28;20033;-57
2022/03/06 19:07:18;;;;;;;10.32;4.60;;;19.40;55.00;;;;;;5028953;28;20061;-58
2022/03/06 19:09:46;;;;;;;9.55;4.40;;;19.40;54.90;;;;;;5029576;28;20113;-59
2022/03/06 19:12:13;;;;;;;10.65;4.55;;;19.50;55.20;;;;;;5020198;28;20060;-59
2022/03/06 19:14:39;;;;;;;10.13;4.57;;;19.50;54.70;;;;;;5019144;28;20022;-58
2022/03/06 19:17:05;;;;;;;9.93;4.55;;;19.60;55.00;;;;;;5014000;28;20088;-57
2022/03/06 19:19:32;;;;;;;11.60;4.35;;;19.60;54.70;;;;;;5027916;28;20020;-57
2022/03/06 19:21:58;;;;;;;9.43;4.43;;;19.60;54.50;;;;;;5030890;28;20041;-58
2022/03/06 19:24:24;;;;;;;11.32;4.47;;;19.70;55.60;;;;;;5050295;28;20037;-57
2022/03/06 19:26:50;;;;;;;13.10;4.38;;;19.70;54.80;;;;;;5018922;28;20112;-58
2022/03/06 19:29:16;;;;;;;11.55;4.50;;;19.80;55.20;;;;;;5033775;28;20461;-58
2022/03/06 19:31:47;;;;;;;14.50;4.10;;;19.80;55.50;;;;;;5023144;28;20417;-58
2022/03/06 19:34:13;;;;;;;13.23;4.35;;;19.80;55.60;;;;;;5026502;28;20064;-57
2022/03/06 19:36:41;;;;;;;9.75;4.10;;;19.80;55.60;;;;;;5027699;28;20064;-58
2022/03/06 19:39:06;;;;;;;10.63;4.20;;;19.80;55.40;;;;;;5028969;28;20630;-57
2022/03/06 19:41:32;;;;;;;10.40;4.00;;;19.90;55.40;;;;;;5028789;28;20033;-57
2022/03/06 19:43:58;;;;;;;11.30;4.20;;;19.90;55.30;;;;;;5017525;28;20076;-57
2022/03/06 19:46:24;;;;;;;9.68;4.30;;;19.90;55.40;;;;;;5022651;28;20025;-58
2022/03/06 19:48:49;;;;;;;14.60;4.22;;;19.90;55.20;;;;;;5029797;28;20025;-58
2022/03/06 19:51:15;;;;;;;10.05;4.07;;;19.90;55.00;;;;;;5036706;28;20079;-57
2022/03/06 19:53:45;;;;;;;8.30;3.83;;;19.90;54.80;;;;;;5035633;28;20033;-58
2022/03/06 19:56:12;;;;;;;8.88;4.13;;;19.90;54.80;;;;;;5036566;28;20025;-59
2022/03/06 19:58:39;;;;;;;9.82;3.90;;;19.90;54.80;;;;;;5029197;28;20053;-58
2022/03/06 20:01:05;;;;;;;8.77;3.83;;;19.90;54.80;;;;;;5036545;28;20043;-58
2022/03/06 20:03:32;;;;;;;8.00;3.83;;;19.90;54.80;;;;;;5030938;28;20097;-58
2022/03/06 20:05:58;;;;;;;10.57;4.15;;;19.90;54.80;;;;;;5029673;28;20100;-58
2022/03/06 20:08:24;;;;;;;8.95;3.80;;;19.90;54.90;;;;;;5029071;28;20025;-58
2022/03/06 20:10:50;;;;;;;11.32;3.70;;;19.90;54.90;;;;;;5045256;28;20091;-58
2022/03/06 20:13:15;;;;;;;9.32;3.75;;;19.80;54.80;;;;;;5058110;28;20418;-58
2022/03/06 20:15:41;;;;;;;8.27;3.97;;;19.80;54.90;;;;;;5023063;28;20037;-59
2022/03/06 20:18:07;;;;;;;9.05;3.85;;;19.80;54.70;;;;;;5023442;28;20441;-58
2022/03/06 20:20:32;;;;;;;7.35;3.80;;;19.80;54.60;;;;;;5023536;28;20098;-58
2022/03/06 20:22:58;;;;;;;10.25;3.85;;;19.80;54.70;;;;;;5036257;28;20032;-58
2022/03/06 20:25:24;;;;;;;9.65;3.58;;;19.80;55.00;;;;;;5023767;28;20033;-58
2022/03/06 20:27:50;;;;;;;10.70;3.72;;;19.80;55.40;;;;;;5037768;28;20021;-58
2022/03/06 20:30:16;;;;;;;7.32;3.53;;;19.70;55.10;;;;;;5031261;28;20033;-58
2022/03/06 20:32:41;;;;;;;11.73;4.20;;;19.80;55.30;;;;;;5030298;28;20093;-58
2022/03/06 20:35:08;;;;;;;9.50;3.80;;;19.70;55.20;;;;;;5029819;28;20029;-58
2022/03/06 20:37:33;;;;;;;8.27;3.25;;;19.70;55.30;;;;;;5016969;28;20103;-58
2022/03/06 20:39:59;;;;;;;7.93;3.78;;;19.70;55.30;;;;;;5028755;28;20089;-58
2022/03/06 20:42:25;;;;;;;9.23;3.55;;;19.70;55.30;;;;;;5027854;28;20029;-58
2022/03/06 20:44:52;;;;;;;10.68;3.80;;;19.70;55.40;;;;;;5024833;28;20033;-58
2022/03/06 20:47:19;;;;;;;10.43;4.10;;;19.70;55.40;;;;;;5017247;28;20037;-58
2022/03/06 20:49:44;;;;;;;11.80;3.72;;;19.60;55.50;;;;;;5019978;28;20066;-59
2022/03/06 20:52:10;;;;;;;7.97;3.58;;;19.60;55.30;;;;;;5015224;28;20026;-58
2022/03/06 20:54:36;;;;;;;6.97;3.50;;;19.60;55.20;;;;;;5017108;28;20119;-58
2022/03/06 20:57:04;;;;;;;9.25;3.60;;;19.60;55.30;;;;;;5018374;28;20030;-57
2022/03/06 20:59:30;;;;;;;8.00;3.90;;;19.60;55.30;;;;;;5017226;28;20065;-57
2022/03/06 21:01:59;;;;;;;9.13;4.00;;;19.50;55.40;;;;;;5013944;28;20115;-58
2022/03/06 21:04:26;;;;;;;7.80;3.90;;;19.60;55.40;;;;;;5011841;28;20088;-58
2022/03/06 21:06:51;;;;;;;8.25;3.40;;;19.50;55.40;;;;;;5047968;28;20044;-58
2022/03/06 21:09:20;;;;;;;9.68;3.65;;;19.50;55.40;;;;;;5024519;28;20021;-58
2022/03/06 21:11:46;;;;;;;7.80;3.75;;;19.50;55.40;;;;;;5023676;28;20036;-58
2022/03/06 21:14:11;;;;;;;11.40;4.57;;;19.50;55.10;;;;;;5025415;28;20195;-58
2022/03/06 21:16:46;;;;;;;9.60;4.10;;;19.50;55.00;;;;;;5011079;28;20032;-59
2022/03/06 21:19:12;;;;;;;11.88;3.85;;;19.40;55.20;;;;;;5014376;28;20026;-58
2022/03/06 21:21:38;;;;;;;9.30;3.80;;;19.40;55.40;;;;;;5016511;28;20092;-58
2022/03/06 21:24:04;;;;;;;9.55;4.15;;;19.40;55.70;;;;;;5016846;28;20132;-58
2022/03/06 21:26:29;;;;;;;8.43;3.47;;;19.30;55.60;;;;;;5016614;28;20612;-57
2022/03/06 21:28:55;;;;;;;9.75;3.45;;;19.30;55.70;;;;;;5013389;28;20564;-58
2022/03/06 21:31:21;;;;;;;8.80;3.97;;;19.30;55.70;;;;;;5026776;28;20033;-58
2022/03/06 21:33:46;;;;;;;7.90;3.80;;;19.30;55.70;;;;;;5017084;28;20029;-58
2022/03/06 21:36:12;;;;;;;8.70;3.60;;;19.20;55.70;;;;;;5016686;28;20489;-58
2022/03/06 21:38:38;;;;;;;9.95;3.90;;;19.20;55.70;;;;;;5016987;28;20029;-58
2022/03/06 21:41:04;;;;;;;9.40;3.53;;;19.20;55.80;;;;;;5013923;28;20132;-58
2022/03/06 21:43:29;;;;;;;8.32;3.47;;;19.20;56.00;;;;;;5012679;28;20101;-58
2022/03/06 21:45:55;;;;;;;7.63;3.67;;;19.10;55.90;;;;;;5027819;28;20037;-58
2022/03/06 21:48:21;;;;;;;8.65;3.70;;;19.20;56.00;;;;;;5019193;28;20092;-58
2022/03/06 21:50:47;;;;;;;7.50;3.58;;;19.10;56.00;;;;;;5016558;28;20041;-57
2022/03/06 21:53:12;;;;;;;8.80;3.85;;;19.10;56.10;;;;;;5027943;28;20025;-57
2022/03/06 21:55:38;;;;;;;10.48;4.05;;;19.00;56.00;;;;;;5010781;28;20095;-58
2022/03/06 21:58:08;;;;;;;7.63;3.53;;;19.00;56.10;;;;;;5046859;28;20026;-58
2022/03/06 22:00:34;;;;;;;8.60;3.53;;;19.00;56.20;;;;;;5016795;28;20042;-58
2022/03/06 22:03:00;;;;;;;8.50;3.40;;;19.00;56.20;;;;;;5016757;28;20068;-58
2022/03/06 22:05:25;;;;;;;7.85;3.42;;;18.90;56.20;;;;;;5016456;28;20034;-58
2022/03/06 22:07:51;;;;;;;7.70;3.60;;;18.90;56.20;;;;;;5023256;28;20105;-58
2022/03/06 22:10:17;;;;;;;7.35;3.50;;;18.90;56.40;;;;;;5020760;28;20059;-58
2022/03/06 22:12:43;;;;;;;8.40;3.50;;;18.90;56.40;;;;;;5016635;28;20105;-58
2022/03/06 22:15:09;;;;;;;9.77;3.65;;;18.90;56.40;;;;;;5016330;28;20505;-58
2022/03/06 22:17:35;;;;;;;8.73;3.35;;;18.80;56.40;;;;;;5016543;28;20033;-58
2022/03/06 22:20:01;;;;;;;7.88;3.50;;;18.80;56.40;;;;;;5013683;28;20048;-58
2022/03/06 22:22:27;;;;;;;9.30;3.20;;;18.80;56.40;;;;;;5011888;28;20033;-58